Latest Weather Observations for Frankston

IDV60801

Issued at 2:02 pm EST Saturday 23 May 2015 (issued every 30 minutes, with the page automatically refreshed every 10 minutes)

About weather observations | Map of weather stations | Latest weather observations for VIC | Other Formats
Station Details ID: 086371 Name: FRANKSTON AWS Lat: -38.15 Lon: 145.12 Height: 6.0 m
Data from the previous 72 hours. | See also: Recent months at Frankston
Date/Time
EST
Temp
°C
App
Temp
°C
Dew
Point
Rel
Hum
%
Delta-T
°C
Wind Press
QNH
hPa
Press
MSL
hPa
Rain
since 9 am
mm
Dir
 
Spd
km/h
Gust
km/h
Spd
kts
Gust
kts
23/02:00pm 11.9 9.7 6.4 69 2.6 WNW 7 11 4 6 - - -
23/01:30pm 11.4 8.4 5.9 69 2.6 W 11 15 6 8 - - -
23/01:00pm 11.4 9.1 5.9 69 2.6 W 7 11 4 6 - - -
23/12:30pm 11.7 9.7 6.2 69 2.6 WSW 6 9 3 5 - - -
23/12:00pm 11.5 9.2 5.8 68 2.6 SW 7 15 4 8 - - -
23/11:30am 11.3 10.3 5.4 67 2.7 CALM 0 4 0 2 - - -
23/11:00am 11.2 9.0 5.3 67 2.7 SW 6 11 3 6 - - -
23/10:30am 11.1 9.7 5.4 68 2.6 W 2 6 1 3 - - -
23/10:00am 10.9 9.8 5.0 67 2.7 CALM 0 0 0 0 - - -
23/09:30am 10.6 8.1 4.7 67 2.7 SW 7 11 4 6 - - -
23/09:00am 10.7 8.4 4.8 67 2.7 S 6 13 3 7 - - -
23/08:30am 10.5 8.0 4.6 67 2.6 SSE 7 13 4 7 - - -
23/08:00am 10.4 8.5 5.0 69 2.4 S 4 4 2 2 - - -
23/07:30am 10.2 8.3 4.8 69 2.4 S 4 6 2 3 - - -
23/07:00am 10.4 8.1 4.8 68 2.5 S 6 11 3 6 - - -
23/06:30am 10.6 8.1 4.9 68 2.6 SW 7 11 4 6 - - -
23/06:00am 10.7 8.8 5.0 68 2.6 SSW 4 7 2 4 - - -
23/05:30am 10.8 8.3 4.9 67 2.7 S 7 13 4 7 - - -
23/05:00am 10.8 8.9 5.1 68 2.6 SSE 4 9 2 5 - - -
23/04:30am 10.8 8.9 5.1 68 2.6 SW 4 6 2 3 - - -
23/04:00am 10.8 8.6 5.1 68 2.6 SSW 6 9 3 5 - - -
23/03:30am 10.9 8.7 5.2 68 2.6 SSW 6 9 3 5 - - -
23/03:00am 11.2 9.0 5.5 68 2.6 SSW 6 7 3 4 - - -
23/02:30am 11.0 9.2 5.3 68 2.6 SSW 4 6 2 3 - - -
23/02:00am 11.2 9.4 5.5 68 2.6 SSW 4 6 2 3 - - -
23/01:30am 11.1 8.9 5.4 68 2.6 SW 6 7 3 4 - - -
23/01:00am 11.5 9.4 5.6 67 2.7 SSW 6 7 3 4 - - -
23/12:30am 11.3 9.2 6.0 70 2.5 SW 6 9 3 5 - - -
23/12:00am 11.4 9.7 6.1 70 2.5 SW 4 6 2 3 - - -
 
Date/Time
EST
Temp
°C
App
Temp
°C
Dew
Point
Rel
Hum
%
Delta-T
°C
Wind Press
QNH
hPa
Press
MSL
hPa
Rain
since 9 am
mm
Dir
 
Spd
km/h
Gust
km/h
Spd
kts
Gust
kts
22/11:30pm 11.4 10.1 6.1 70 2.5 SSW 2 4 1 2 - - -
22/11:00pm 11.4 9.7 5.9 69 2.6 SSW 4 7 2 4 - - -
22/10:30pm 11.4 9.3 5.9 69 2.6 SSW 6 9 3 5 - - -
22/10:00pm 11.4 10.4 5.5 67 2.7 CALM 0 0 0 0 - - -
22/09:30pm 11.3 10.3 5.4 67 2.7 CALM 0 0 0 0 - - -
22/09:00pm 11.3 10.2 5.2 66 2.8 CALM 0 2 0 1 - - -
22/08:30pm 11.4 9.5 5.1 65 2.9 SSW 4 7 2 4 - - -
22/08:00pm 11.4 8.7 5.5 67 2.7 SSW 9 17 5 9 - - -
22/07:30pm 11.5 9.3 5.4 66 2.8 SW 6 7 3 4 - - -
22/07:00pm 11.5 9.7 5.2 65 2.9 SSW 4 9 2 5 - - -
22/06:30pm 11.5 9.1 5.2 65 2.9 SSW 7 13 4 7 - - -
22/06:00pm 11.7 9.4 5.6 66 2.8 SSW 7 13 4 7 - - -
22/05:30pm 11.9 9.2 5.5 65 3.0 SSW 9 19 5 10 - - -
22/05:00pm 12.0 9.7 5.6 65 3.0 SSW 7 11 4 6 - - -
22/04:30pm 12.2 9.9 5.6 64 3.1 S 7 17 4 9 - - -
22/04:00pm 12.3 10.0 5.9 65 3.0 S 7 17 4 9 - - -
22/03:30pm 12.4 9.0 6.0 65 3.0 S 13 20 7 11 - - -
22/03:00pm 12.6 9.3 6.2 65 3.0 S 13 24 7 13 - - -
22/02:30pm 12.6 9.2 6.0 64 3.1 S 13 22 7 12 - - -
22/02:00pm 13.0 9.8 7.0 67 2.9 S 13 24 7 13 - - -
22/01:30pm 13.2 10.5 7.2 67 2.9 SSW 11 19 6 10 - - -
22/01:00pm 13.3 11.0 7.3 67 2.9 S 9 19 5 10 - - -
22/12:30pm 12.8 10.2 7.7 71 2.5 SSW 11 20 6 11 - - -
22/12:00pm 12.8 10.3 8.3 74 2.2 SSW 11 20 6 11 - - -
22/11:30am 12.6 11.1 8.3 75 2.1 ESE 6 11 3 6 - - -
22/11:00am 12.1 11.1 8.8 80 1.6 SE 4 9 2 5 - - -
22/10:30am 11.1 9.5 8.0 81 1.5 S 6 9 3 5 - - -
22/10:00am 11.4 9.1 7.5 77 1.9 SSW 9 15 5 8 - - -
22/09:30am 11.9 10.3 8.0 77 1.9 SSW 6 9 3 5 - - -
22/09:00am 11.8 10.2 7.9 77 1.9 SSW 6 7 3 4 - - -
22/08:30am 11.6 10.4 8.1 79 1.7 SSW 4 7 2 4 - - -
22/08:00am 11.1 9.9 8.0 81 1.5 SSE 4 6 2 3 - - -
22/07:30am 11.3 10.1 8.2 81 1.5 SSE 4 7 2 4 - - -
22/07:00am 11.1 9.6 8.3 83 1.4 S 6 9 3 5 - - -
22/06:30am 10.8 9.7 8.6 86 1.1 SSE 4 6 2 3 - - -
22/06:00am 10.6 9.1 8.5 87 1.0 SSW 6 6 3 3 - - -
22/05:30am 10.4 10.1 8.5 88 0.9 CALM 0 0 0 0 - - -
22/05:00am 10.3 9.2 8.4 88 0.9 S 4 7 2 4 - - -
22/04:30am 10.5 9.1 8.8 89 0.8 SE 6 7 3 4 - - -
22/04:00am 9.9 8.7 8.2 89 0.8 SSE 4 9 2 5 - - -
22/03:30am 10.4 9.4 8.7 89 0.8 SE 4 9 2 5 - - -
22/03:00am 10.7 9.3 9.0 89 0.8 SE 6 11 3 6 - - -
22/02:30am 11.0 9.8 9.4 90 0.8 SE 6 11 3 6 - - -
22/02:00am 11.0 10.1 9.4 90 0.8 SSE 4 11 2 6 - - -
22/01:30am 11.3 10.1 9.7 90 0.8 S 6 9 3 5 - - -
22/01:00am 11.4 10.3 9.8 90 0.8 SSE 6 11 3 6 - - -
22/12:30am 11.6 10.9 10.2 91 0.7 SSE 4 9 2 5 - - -
22/12:00am 11.7 10.7 10.3 91 0.7 SSE 6 11 3 6 - - -
 
Date/Time
EST
Temp
°C
App
Temp
°C
Dew
Point
Rel
Hum
%
Delta-T
°C
Wind Press
QNH
hPa
Press
MSL
hPa
Rain
since 9 am
mm
Dir
 
Spd
km/h
Gust
km/h
Spd
kts
Gust
kts
21/11:30pm 11.7 10.7 10.3 91 0.7 SE 6 11 3 6 - - -
21/11:00pm 11.9 10.4 10.6 92 0.7 SSE 9 17 5 9 - - -
21/10:30pm 11.4 10.4 10.3 93 0.6 SSE 6 13 3 7 - - -
21/10:00pm 11.0 11.0 9.9 93 0.6 CALM 0 0 0 0 - - -
21/09:30pm 11.0 11.0 9.9 93 0.6 CALM 0 0 0 0 - - -
21/09:00pm 10.9 10.5 9.8 93 0.6 S 2 6 1 3 - - -
21/08:30pm 10.9 10.1 9.8 93 0.6 SE 4 6 2 3 - - -
21/08:00pm 11.4 10.8 10.3 93 0.6 ESE 4 9 2 5 - - -
21/07:30pm 11.4 11.2 10.3 93 0.6 SE 2 4 1 2 - - -
21/07:00pm 11.4 10.2 10.3 93 0.6 E 7 11 4 6 - - -
21/06:30pm 11.5 10.5 10.2 92 0.7 NE 6 11 3 6 - - -
21/06:00pm 11.5 9.9 10.2 92 0.7 NNE 9 11 5 6 - - -
21/05:30pm 11.4 10.1 9.8 90 0.8 N 7 9 4 5 - - -
21/05:00pm 11.2 9.9 9.3 88 1.0 WNW 6 7 3 4 - - -
21/04:30pm 11.6 8.7 8.3 80 1.6 WSW 13 15 7 8 - - -
21/04:00pm 12.4 10.5 7.5 72 2.4 WSW 7 13 4 7 - - -
21/03:30pm 12.7 10.0 7.2 69 2.7 SW 11 15 6 8 - - -
21/03:00pm 12.6 8.7 7.3 70 2.6 WSW 17 20 9 11 - - -
21/02:30pm 12.7 8.8 7.0 68 2.7 WSW 17 22 9 12 - - -
21/02:00pm 12.9 8.5 7.6 70 2.6 WSW 20 24 11 13 - - -
21/01:30pm 12.9 8.7 7.6 70 2.6 WSW 19 22 10 12 - - -
21/01:00pm 13.0 9.5 7.2 68 2.8 WSW 15 19 8 10 - - -
21/12:30pm 12.9 10.1 7.1 68 2.8 WSW 11 13 6 7 - - -
21/12:00pm 12.8 10.8 7.0 68 2.8 SSW 7 13 4 7 - - -
21/11:30am 12.7 10.7 7.0 68 2.7 SW 7 11 4 6 - - -
21/11:00am 12.3 10.8 7.0 70 2.5 NW 4 6 2 3 - - -
21/10:30am 12.1 11.0 7.0 71 2.4 NW 2 4 1 2 - - -
21/10:00am 12.1 10.6 7.0 71 2.4 N 4 7 2 4 - - -
21/09:30am 11.8 11.2 7.3 74 2.2 CALM 0 0 0 0 - - -
21/09:00am 11.7 10.8 7.6 76 2.0 ESE 2 2 1 1 - - -
21/08:30am 11.4 10.8 7.3 76 2.0 CALM 0 4 0 2 - - -
21/08:00am 11.2 9.8 7.1 76 2.0 S 4 7 2 4 - - -
21/07:30am 11.2 9.3 6.9 75 2.0 S 6 9 3 5 - - -
21/07:00am 11.2 9.1 6.7 74 2.1 S 7 13 4 7 - - -
21/06:30am 11.3 9.8 6.6 73 2.2 SW 4 6 2 3 - - -
21/06:00am 11.3 9.3 6.4 72 2.3 SSW 6 6 3 3 - - -
21/05:30am 11.3 9.4 6.6 73 2.2 SSW 6 6 3 3 - - -
21/05:00am 11.4 9.5 6.9 74 2.1 SW 6 9 3 5 - - -
21/04:30am 11.0 9.5 6.9 76 1.9 SSW 4 7 2 4 - - -
21/04:00am 11.1 9.4 7.4 78 1.8 SW 6 9 3 5 - - -
21/03:30am 11.0 9.3 7.7 80 1.6 SSW 6 11 3 6 - - -
21/03:00am 11.0 9.1 7.7 80 1.6 SSW 7 13 4 7 - - -
21/02:30am 11.1 9.3 8.1 82 1.5 SW 7 11 4 6 - - -
21/02:00am 11.0 9.3 8.2 83 1.4 SW 7 11 4 6 - - -
21/01:30am 10.9 8.5 8.5 85 1.2 SSW 11 20 6 11 - - -
21/01:00am 10.9 8.1 8.5 85 1.2 SW 13 19 7 10 - - -
21/12:30am 11.1 7.2 8.8 86 1.1 SW 19 24 10 13 - - -
21/12:00am 11.4 8.4 9.3 87 1.1 SW 15 20 8 11 - - -
 
Date/Time
EST
Temp
°C
App
Temp
°C
Dew
Point
Rel
Hum
%
Delta-T
°C
Wind Press
QNH
hPa
Press
MSL
hPa
Rain
since 9 am
mm
Dir
 
Spd
km/h
Gust
km/h
Spd
kts
Gust
kts
20/11:30pm 11.3 8.3 9.4 88 1.0 SW 15 24 8 13 - - -
20/11:00pm 11.7 8.1 9.9 89 0.9 SW 19 26 10 14 - - -
20/10:30pm 11.8 8.3 10.2 90 0.8 SW 19 28 10 15 - - -
20/10:00pm 11.9 8.2 10.0 88 1.0 SW 20 33 11 18 - - -
20/09:30pm 12.8 9.2 10.5 86 1.2 SW 20 32 11 17 - - -
20/09:00pm 13.2 10.3 10.9 86 1.2 SW 17 24 9 13 - - -
20/08:30pm 13.6 10.8 11.5 87 1.1 SW 17 24 9 13 - - -
20/08:00pm 13.6 10.4 11.8 89 1.0 WSW 20 26 11 14 - - -
20/07:30pm 14.0 10.5 12.2 89 1.0 WSW 22 28 12 15 - - -
20/07:00pm 14.2 11.4 12.6 90 0.9 W 19 28 10 15 - - -
20/06:30pm 14.2 10.9 12.8 91 0.8 WNW 22 28 12 15 - - -
20/06:00pm 13.4 8.2 11.6 89 1.0 NW 30 37 16 20 - - -
20/05:30pm 13.4 8.5 11.3 87 1.1 NW 28 35 15 19 - - -
20/05:00pm 14.2 9.7 11.5 84 1.4 NW 26 33 14 18 - - -
20/04:30pm 14.5 10.5 11.7 83 1.5 NW 24 30 13 16 - - -
20/04:00pm 14.9 11.7 11.1 78 2.0 NW 19 24 10 13 - - -
20/03:30pm 15.1 11.8 10.9 76 2.2 NW 19 24 10 13 - - -
20/03:00pm 15.1 12.4 10.5 74 2.4 NNW 15 19 8 10 - - -
20/02:30pm 15.1 12.1 10.5 74 2.4 NNW 17 20 9 11 - - -

Other Formats:

Comma delimited format used in spreadsheet applications
http://www.bom.gov.au/fwo/IDV60801/IDV60801.94871.axf

JavaScript Object Notation format (JSON) in row-major order
http://www.bom.gov.au/fwo/IDV60801/IDV60801.94871.json